sensor_id;sensor_type;location;lat;lon;timestamp;P1;durP1;ratioP1;P2;durP2;ratioP2
9950;SDS011;24074;49.254;6.702;2023-05-13T00:00:04;3.00;;;2.53;;
9950;SDS011;24074;49.254;6.702;2023-05-13T00:02:30;3.17;;;2.37;;
9950;SDS011;24074;49.254;6.702;2023-05-13T00:04:56;2.77;;;2.17;;
9950;SDS011;24074;49.254;6.702;2023-05-13T00:07:21;2.87;;;2.23;;
9950;SDS011;24074;49.254;6.702;2023-05-13T00:09:47;2.50;;;2.00;;
9950;SDS011;24074;49.254;6.702;2023-05-13T00:12:13;2.63;;;2.27;;
9950;SDS011;24074;49.254;6.702;2023-05-13T00:14:38;2.43;;;2.20;;
9950;SDS011;24074;49.254;6.702;2023-05-13T00:17:04;2.50;;;2.30;;
9950;SDS011;24074;49.254;6.702;2023-05-13T00:19:30;2.90;;;2.40;;
9950;SDS011;24074;49.254;6.702;2023-05-13T00:21:55;2.50;;;1.97;;
9950;SDS011;24074;49.254;6.702;2023-05-13T00:24:21;2.63;;;2.23;;
9950;SDS011;24074;49.254;6.702;2023-05-13T00:26:47;2.87;;;2.20;;
9950;SDS011;24074;49.254;6.702;2023-05-13T00:29:12;3.73;;;2.23;;
9950;SDS011;24074;49.254;6.702;2023-05-13T00:31:38;3.00;;;2.00;;
9950;SDS011;24074;49.254;6.702;2023-05-13T00:34:03;2.20;;;2.00;;
9950;SDS011;24074;49.254;6.702;2023-05-13T00:36:29;4.50;;;2.00;;
9950;SDS011;24074;49.254;6.702;2023-05-13T00:38:55;3.13;;;2.00;;
9950;SDS011;24074;49.254;6.702;2023-05-13T00:41:21;2.60;;;2.17;;
9950;SDS011;24074;49.254;6.702;2023-05-13T00:43:47;2.83;;;1.77;;
9950;SDS011;24074;49.254;6.702;2023-05-13T00:46:13;4.00;;;2.27;;
9950;SDS011;24074;49.254;6.702;2023-05-13T00:48:39;3.60;;;2.00;;
9950;SDS011;24074;49.254;6.702;2023-05-13T00:51:05;2.40;;;2.20;;
9950;SDS011;24074;49.254;6.702;2023-05-13T00:53:32;2.40;;;2.10;;
9950;SDS011;24074;49.254;6.702;2023-05-13T00:55:58;2.97;;;2.10;;
9950;SDS011;24074;49.254;6.702;2023-05-13T00:58:24;2.43;;;2.23;;
9950;SDS011;24074;49.254;6.702;2023-05-13T01:06:47;3.20;;;2.10;;
9950;SDS011;24074;49.254;6.702;2023-05-13T01:12:34;2.53;;;2.10;;
9950;SDS011;24074;49.254;6.702;2023-05-13T01:15:05;4.13;;;2.23;;
9950;SDS011;24074;49.254;6.702;2023-05-13T01:20:24;6.17;;;2.47;;
9950;SDS011;24074;49.254;6.702;2023-05-13T01:22:52;5.27;;;2.70;;
9950;SDS011;24074;49.254;6.702;2023-05-13T01:25:17;4.77;;;2.60;;
9950;SDS011;24074;49.254;6.702;2023-05-13T01:27:43;3.00;;;2.60;;
9950;SDS011;24074;49.254;6.702;2023-05-13T01:30:09;3.40;;;2.40;;
9950;SDS011;24074;49.254;6.702;2023-05-13T01:32:35;3.70;;;2.60;;
9950;SDS011;24074;49.254;6.702;2023-05-13T01:35:02;3.80;;;2.43;;
9950;SDS011;24074;49.254;6.702;2023-05-13T01:37:29;5.37;;;2.67;;
9950;SDS011;24074;49.254;6.702;2023-05-13T01:39:55;7.23;;;2.70;;
9950;SDS011;24074;49.254;6.702;2023-05-13T01:42:22;4.80;;;2.87;;
9950;SDS011;24074;49.254;6.702;2023-05-13T01:44:50;4.17;;;2.90;;
9950;SDS011;24074;49.254;6.702;2023-05-13T01:50:16;5.40;;;3.50;;
9950;SDS011;24074;49.254;6.702;2023-05-13T01:52:42;4.70;;;2.77;;
9950;SDS011;24074;49.254;6.702;2023-05-13T01:55:08;6.40;;;3.10;;
9950;SDS011;24074;49.254;6.702;2023-05-13T01:57:34;4.67;;;3.03;;
9950;SDS011;24074;49.254;6.702;2023-05-13T02:00:00;4.27;;;2.77;;
9950;SDS011;24074;49.254;6.702;2023-05-13T02:02:29;4.93;;;2.90;;
9950;SDS011;24074;49.254;6.702;2023-05-13T02:04:54;4.03;;;3.00;;
9950;SDS011;24074;49.254;6.702;2023-05-13T02:07:20;5.40;;;3.17;;
9950;SDS011;24074;49.254;6.702;2023-05-13T02:09:45;6.20;;;3.00;;
9950;SDS011;24074;49.254;6.702;2023-05-13T02:12:11;7.07;;;3.20;;
9950;SDS011;24074;49.254;6.702;2023-05-13T02:14:37;8.33;;;3.30;;
9950;SDS011;24074;49.254;6.702;2023-05-13T02:20:17;4.50;;;2.90;;
9950;SDS011;24074;49.254;6.702;2023-05-13T02:22:42;6.00;;;3.00;;
9950;SDS011;24074;49.254;6.702;2023-05-13T02:25:08;4.30;;;2.80;;
9950;SDS011;24074;49.254;6.702;2023-05-13T02:27:34;5.57;;;2.73;;
9950;SDS011;24074;49.254;6.702;2023-05-13T02:29:59;4.67;;;3.13;;
9950;SDS011;24074;49.254;6.702;2023-05-13T02:32:25;5.20;;;3.20;;
9950;SDS011;24074;49.254;6.702;2023-05-13T02:34:50;4.93;;;3.10;;
9950;SDS011;24074;49.254;6.702;2023-05-13T02:37:19;8.73;;;3.40;;
9950;SDS011;24074;49.254;6.702;2023-05-13T02:39:44;4.97;;;3.07;;
9950;SDS011;24074;49.254;6.702;2023-05-13T02:42:10;3.83;;;3.03;;
9950;SDS011;24074;49.254;6.702;2023-05-13T02:44:35;4.37;;;2.80;;
9950;SDS011;24074;49.254;6.702;2023-05-13T02:47:01;4.40;;;3.00;;
9950;SDS011;24074;49.254;6.702;2023-05-13T02:49:26;3.77;;;3.37;;
9950;SDS011;24074;49.254;6.702;2023-05-13T02:51:52;6.03;;;3.70;;
9950;SDS011;24074;49.254;6.702;2023-05-13T02:54:17;4.13;;;3.27;;
9950;SDS011;24074;49.254;6.702;2023-05-13T02:56:43;3.40;;;3.00;;
9950;SDS011;24074;49.254;6.702;2023-05-13T02:59:09;3.60;;;3.30;;
9950;SDS011;24074;49.254;6.702;2023-05-13T03:01:35;5.63;;;3.67;;
9950;SDS011;24074;49.254;6.702;2023-05-13T03:04:00;4.63;;;3.57;;
9950;SDS011;24074;49.254;6.702;2023-05-13T03:06:26;4.37;;;3.97;;
9950;SDS011;24074;49.254;6.702;2023-05-13T03:08:51;6.20;;;4.17;;
9950;SDS011;24074;49.254;6.702;2023-05-13T03:11:17;5.33;;;4.13;;
9950;SDS011;24074;49.254;6.702;2023-05-13T03:13:42;3.77;;;3.47;;
9950;SDS011;24074;49.254;6.702;2023-05-13T03:16:08;4.30;;;3.60;;
9950;SDS011;24074;49.254;6.702;2023-05-13T03:18:34;4.13;;;3.60;;
9950;SDS011;24074;49.254;6.702;2023-05-13T03:20:59;4.17;;;3.30;;
9950;SDS011;24074;49.254;6.702;2023-05-13T03:23:25;5.73;;;3.70;;
9950;SDS011;24074;49.254;6.702;2023-05-13T03:25:51;4.90;;;3.50;;
9950;SDS011;24074;49.254;6.702;2023-05-13T03:28:16;7.27;;;3.30;;
9950;SDS011;24074;49.254;6.702;2023-05-13T03:30:42;5.47;;;3.03;;
9950;SDS011;24074;49.254;6.702;2023-05-13T03:33:11;10.90;;;3.30;;
9950;SDS011;24074;49.254;6.702;2023-05-13T03:35:36;4.80;;;3.40;;
9950;SDS011;24074;49.254;6.702;2023-05-13T03:38:02;5.07;;;3.43;;
9950;SDS011;24074;49.254;6.702;2023-05-13T03:40:28;4.90;;;3.60;;
9950;SDS011;24074;49.254;6.702;2023-05-13T03:42:54;3.70;;;3.40;;
9950;SDS011;24074;49.254;6.702;2023-05-13T03:45:20;7.03;;;3.87;;
9950;SDS011;24074;49.254;6.702;2023-05-13T03:47:45;4.40;;;3.43;;
9950;SDS011;24074;49.254;6.702;2023-05-13T03:50:11;5.03;;;3.73;;
9950;SDS011;24074;49.254;6.702;2023-05-13T03:52:36;9.60;;;3.50;;
9950;SDS011;24074;49.254;6.702;2023-05-13T03:55:02;4.10;;;3.70;;
9950;SDS011;24074;49.254;6.702;2023-05-13T03:57:27;6.37;;;3.40;;
9950;SDS011;24074;49.254;6.702;2023-05-13T03:59:53;4.27;;;3.87;;
9950;SDS011;24074;49.254;6.702;2023-05-13T04:02:19;7.20;;;3.63;;
9950;SDS011;24074;49.254;6.702;2023-05-13T04:04:45;4.57;;;4.07;;
9950;SDS011;24074;49.254;6.702;2023-05-13T04:07:11;6.63;;;3.73;;
9950;SDS011;24074;49.254;6.702;2023-05-13T04:09:36;4.27;;;3.70;;
9950;SDS011;24074;49.254;6.702;2023-05-13T04:12:02;6.63;;;3.93;;
9950;SDS011;24074;49.254;6.702;2023-05-13T04:14:28;6.70;;;3.57;;
9950;SDS011;24074;49.254;6.702;2023-05-13T04:16:53;6.73;;;3.97;;
9950;SDS011;24074;49.254;6.702;2023-05-13T04:19:19;5.10;;;4.17;;
9950;SDS011;24074;49.254;6.702;2023-05-13T04:21:45;4.93;;;3.90;;
9950;SDS011;24074;49.254;6.702;2023-05-13T04:24:10;4.67;;;3.80;;
9950;SDS011;24074;49.254;6.702;2023-05-13T04:26:36;5.00;;;4.13;;
9950;SDS011;24074;49.254;6.702;2023-05-13T04:29:02;5.47;;;4.00;;
9950;SDS011;24074;49.254;6.702;2023-05-13T04:31:30;7.70;;;4.30;;
9950;SDS011;24074;49.254;6.702;2023-05-13T04:33:56;4.53;;;3.57;;
9950;SDS011;24074;49.254;6.702;2023-05-13T04:36:21;9.23;;;4.07;;
9950;SDS011;24074;49.254;6.702;2023-05-13T04:38:47;4.20;;;3.40;;
9950;SDS011;24074;49.254;6.702;2023-05-13T04:41:12;10.23;;;3.77;;
9950;SDS011;24074;49.254;6.702;2023-05-13T04:43:38;4.37;;;3.50;;
9950;SDS011;24074;49.254;6.702;2023-05-13T04:46:03;3.70;;;3.40;;
9950;SDS011;24074;49.254;6.702;2023-05-13T04:48:29;5.13;;;3.00;;
9950;SDS011;24074;49.254;6.702;2023-05-13T04:50:55;4.20;;;3.53;;
9950;SDS011;24074;49.254;6.702;2023-05-13T04:53:20;4.93;;;3.80;;
9950;SDS011;24074;49.254;6.702;2023-05-13T04:55:47;4.07;;;3.57;;
9950;SDS011;24074;49.254;6.702;2023-05-13T04:58:13;4.07;;;3.70;;
9950;SDS011;24074;49.254;6.702;2023-05-13T05:00:39;3.70;;;3.30;;
9950;SDS011;24074;49.254;6.702;2023-05-13T05:03:04;6.47;;;3.40;;
9950;SDS011;24074;49.254;6.702;2023-05-13T05:05:30;3.73;;;3.37;;
9950;SDS011;24074;49.254;6.702;2023-05-13T05:07:58;7.57;;;3.60;;
9950;SDS011;24074;49.254;6.702;2023-05-13T05:10:24;5.07;;;3.83;;
9950;SDS011;24074;49.254;6.702;2023-05-13T05:12:49;5.20;;;3.50;;
9950;SDS011;24074;49.254;6.702;2023-05-13T05:15:15;7.50;;;3.50;;
9950;SDS011;24074;49.254;6.702;2023-05-13T05:17:41;3.37;;;3.07;;
9950;SDS011;24074;49.254;6.702;2023-05-13T05:20:07;4.57;;;3.17;;
9950;SDS011;24074;49.254;6.702;2023-05-13T05:22:33;4.97;;;3.60;;
9950;SDS011;24074;49.254;6.702;2023-05-13T05:25:00;4.20;;;3.80;;
9950;SDS011;24074;49.254;6.702;2023-05-13T05:27:25;5.73;;;3.50;;
9950;SDS011;24074;49.254;6.702;2023-05-13T05:29:51;3.87;;;3.40;;
9950;SDS011;24074;49.254;6.702;2023-05-13T05:32:17;4.40;;;3.40;;
9950;SDS011;24074;49.254;6.702;2023-05-13T05:34:43;3.40;;;3.07;;
9950;SDS011;24074;49.254;6.702;2023-05-13T05:37:09;3.20;;;2.97;;
9950;SDS011;24074;49.254;6.702;2023-05-13T05:39:34;3.20;;;2.90;;
9950;SDS011;24074;49.254;6.702;2023-05-13T05:42:00;5.00;;;3.20;;
9950;SDS011;24074;49.254;6.702;2023-05-13T05:44:26;3.83;;;3.00;;
9950;SDS011;24074;49.254;6.702;2023-05-13T05:46:54;3.90;;;3.50;;
9950;SDS011;24074;49.254;6.702;2023-05-13T05:49:20;4.50;;;3.10;;
9950;SDS011;24074;49.254;6.702;2023-05-13T05:51:45;3.47;;;2.90;;
9950;SDS011;24074;49.254;6.702;2023-05-13T05:54:11;4.33;;;2.80;;
9950;SDS011;24074;49.254;6.702;2023-05-13T05:56:36;2.80;;;2.40;;
9950;SDS011;24074;49.254;6.702;2023-05-13T05:59:02;2.70;;;2.33;;
9950;SDS011;24074;49.254;6.702;2023-05-13T06:01:28;3.17;;;2.17;;
9950;SDS011;24074;49.254;6.702;2023-05-13T06:03:57;6.10;;;2.30;;
9950;SDS011;24074;49.254;6.702;2023-05-13T06:06:23;3.10;;;2.30;;
9950;SDS011;24074;49.254;6.702;2023-05-13T06:08:49;2.28;;;1.95;;
9950;SDS011;24074;49.254;6.702;2023-05-13T06:11:15;2.72;;;2.20;;
9950;SDS011;24074;49.254;6.702;2023-05-13T06:13:43;2.53;;;2.28;;
9950;SDS011;24074;49.254;6.702;2023-05-13T06:16:09;3.72;;;2.20;;
9950;SDS011;24074;49.254;6.702;2023-05-13T06:18:37;4.15;;;2.35;;
9950;SDS011;24074;49.254;6.702;2023-05-13T06:21:03;3.47;;;2.20;;
9950;SDS011;24074;49.254;6.702;2023-05-13T06:23:28;3.95;;;2.75;;
9950;SDS011;24074;49.254;6.702;2023-05-13T06:25:54;3.08;;;2.80;;
9950;SDS011;24074;49.254;6.702;2023-05-13T06:28:21;3.33;;;2.72;;
9950;SDS011;24074;49.254;6.702;2023-05-13T06:30:46;5.20;;;2.53;;
9950;SDS011;24074;49.254;6.702;2023-05-13T06:33:12;7.00;;;3.08;;
9950;SDS011;24074;49.254;6.702;2023-05-13T06:35:38;3.92;;;2.97;;
9950;SDS011;24074;49.254;6.702;2023-05-13T06:38:03;3.95;;;2.78;;
9950;SDS011;24074;49.254;6.702;2023-05-13T06:40:29;3.43;;;3.13;;
9950;SDS011;24074;49.254;6.702;2023-05-13T06:42:55;3.40;;;3.03;;
9950;SDS011;24074;49.254;6.702;2023-05-13T06:45:21;3.97;;;3.33;;
9950;SDS011;24074;49.254;6.702;2023-05-13T06:47:51;3.27;;;2.97;;
9950;SDS011;24074;49.254;6.702;2023-05-13T06:50:17;4.00;;;3.00;;
9950;SDS011;24074;49.254;6.702;2023-05-13T06:52:43;3.63;;;3.20;;
9950;SDS011;24074;49.254;6.702;2023-05-13T06:55:08;3.40;;;3.10;;
9950;SDS011;24074;49.254;6.702;2023-05-13T06:57:34;3.60;;;3.30;;
9950;SDS011;24074;49.254;6.702;2023-05-13T07:00:00;4.10;;;3.47;;
9950;SDS011;24074;49.254;6.702;2023-05-13T07:02:26;5.22;;;3.00;;
9950;SDS011;24074;49.254;6.702;2023-05-13T07:04:51;3.50;;;3.20;;
9950;SDS011;24074;49.254;6.702;2023-05-13T07:07:17;3.38;;;3.08;;
9950;SDS011;24074;49.254;6.702;2023-05-13T07:09:43;3.45;;;2.80;;
9950;SDS011;24074;49.254;6.702;2023-05-13T07:12:08;3.38;;;2.80;;
9950;SDS011;24074;49.254;6.702;2023-05-13T07:14:35;4.20;;;2.50;;
9950;SDS011;24074;49.254;6.702;2023-05-13T07:17:01;3.67;;;3.38;;
9950;SDS011;24074;49.254;6.702;2023-05-13T07:19:28;3.15;;;2.85;;
9950;SDS011;24074;49.254;6.702;2023-05-13T07:21:54;2.92;;;2.58;;
9950;SDS011;24074;49.254;6.702;2023-05-13T07:24:23;2.63;;;2.42;;
9950;SDS011;24074;49.254;6.702;2023-05-13T07:26:49;4.93;;;2.70;;
9950;SDS011;24074;49.254;6.702;2023-05-13T07:29:14;3.10;;;2.47;;
9950;SDS011;24074;49.254;6.702;2023-05-13T07:31:40;2.83;;;2.60;;
9950;SDS011;24074;49.254;6.702;2023-05-13T07:34:05;2.45;;;2.05;;
9950;SDS011;24074;49.254;6.702;2023-05-13T07:36:31;2.38;;;2.17;;
9950;SDS011;24074;49.254;6.702;2023-05-13T07:38:56;2.50;;;2.30;;
9950;SDS011;24074;49.254;6.702;2023-05-13T07:41:22;3.20;;;2.30;;
9950;SDS011;24074;49.254;6.702;2023-05-13T07:43:47;3.15;;;2.05;;
9950;SDS011;24074;49.254;6.702;2023-05-13T07:46:13;2.17;;;1.88;;
9950;SDS011;24074;49.254;6.702;2023-05-13T07:48:39;2.60;;;1.92;;
9950;SDS011;24074;49.254;6.702;2023-05-13T07:51:05;2.53;;;2.33;;
9950;SDS011;24074;49.254;6.702;2023-05-13T07:53:30;2.17;;;1.98;;
9950;SDS011;24074;49.254;6.702;2023-05-13T07:55:56;2.55;;;2.28;;
9950;SDS011;24074;49.254;6.702;2023-05-13T07:58:21;2.20;;;2.00;;
9950;SDS011;24074;49.254;6.702;2023-05-13T08:00:50;1.92;;;1.83;;
9950;SDS011;24074;49.254;6.702;2023-05-13T08:03:15;2.42;;;2.10;;
9950;SDS011;24074;49.254;6.702;2023-05-13T08:05:41;2.97;;;1.95;;
9950;SDS011;24074;49.254;6.702;2023-05-13T08:08:07;5.43;;;2.15;;
9950;SDS011;24074;49.254;6.702;2023-05-13T08:10:32;3.30;;;2.25;;
9950;SDS011;24074;49.254;6.702;2023-05-13T08:12:58;2.10;;;1.90;;
9950;SDS011;24074;49.254;6.702;2023-05-13T08:15:25;2.42;;;2.22;;
9950;SDS011;24074;49.254;6.702;2023-05-13T08:17:50;2.17;;;1.98;;
9950;SDS011;24074;49.254;6.702;2023-05-13T08:20:17;4.03;;;2.17;;
9950;SDS011;24074;49.254;6.702;2023-05-13T08:22:44;2.53;;;2.33;;
9950;SDS011;24074;49.254;6.702;2023-05-13T08:25:11;3.05;;;2.08;;
9950;SDS011;24074;49.254;6.702;2023-05-13T08:27:37;2.35;;;2.10;;
9950;SDS011;24074;49.254;6.702;2023-05-13T08:30:03;2.63;;;2.10;;
9950;SDS011;24074;49.254;6.702;2023-05-13T08:32:29;2.95;;;2.05;;
9950;SDS011;24074;49.254;6.702;2023-05-13T08:34:55;2.20;;;2.00;;
9950;SDS011;24074;49.254;6.702;2023-05-13T08:37:20;2.20;;;2.00;;
9950;SDS011;24074;49.254;6.702;2023-05-13T08:39:46;2.92;;;2.20;;
9950;SDS011;24074;49.254;6.702;2023-05-13T08:42:12;2.38;;;1.88;;
9950;SDS011;24074;49.254;6.702;2023-05-13T08:44:43;4.25;;;2.15;;
9950;SDS011;24074;49.254;6.702;2023-05-13T08:49:49;2.95;;;2.10;;
9950;SDS011;24074;49.254;6.702;2023-05-13T08:52:17;2.30;;;2.10;;
9950;SDS011;24074;49.254;6.702;2023-05-13T08:54:44;3.47;;;1.92;;
9950;SDS011;24074;49.254;6.702;2023-05-13T08:57:13;5.00;;;2.30;;
9950;SDS011;24074;49.254;6.702;2023-05-13T08:59:40;2.20;;;2.00;;
9950;SDS011;24074;49.254;6.702;2023-05-13T09:02:06;3.78;;;2.25;;
9950;SDS011;24074;49.254;6.702;2023-05-13T09:04:32;2.13;;;1.92;;
9950;SDS011;24074;49.254;6.702;2023-05-13T09:07:02;4.75;;;2.00;;
9950;SDS011;24074;49.254;6.702;2023-05-13T09:09:31;2.63;;;2.03;;
9950;SDS011;24074;49.254;6.702;2023-05-13T09:11:57;3.30;;;2.15;;
9950;SDS011;24074;49.254;6.702;2023-05-13T09:14:26;2.03;;;1.92;;
9950;SDS011;24074;49.254;6.702;2023-05-13T09:16:55;1.92;;;1.83;;
9950;SDS011;24074;49.254;6.702;2023-05-13T09:19:22;2.78;;;2.00;;
9950;SDS011;24074;49.254;6.702;2023-05-13T09:21:48;2.50;;;2.15;;
9950;SDS011;24074;49.254;6.702;2023-05-13T09:24:14;3.25;;;2.30;;
9950;SDS011;24074;49.254;6.702;2023-05-13T09:26:45;2.20;;;2.00;;
9950;SDS011;24074;49.254;6.702;2023-05-13T09:29:25;2.22;;;2.03;;
9950;SDS011;24074;49.254;6.702;2023-05-13T09:31:56;2.95;;;1.85;;
9950;SDS011;24074;49.254;6.702;2023-05-13T09:34:23;2.38;;;2.17;;
9950;SDS011;24074;49.254;6.702;2023-05-13T09:36:54;3.78;;;2.35;;
9950;SDS011;24074;49.254;6.702;2023-05-13T09:39:39;3.10;;;2.25;;
9950;SDS011;24074;49.254;6.702;2023-05-13T09:42:13;2.72;;;2.00;;
9950;SDS011;24074;49.254;6.702;2023-05-13T09:44:40;2.65;;;1.85;;
9950;SDS011;24074;49.254;6.702;2023-05-13T09:47:10;2.45;;;2.00;;
9950;SDS011;24074;49.254;6.702;2023-05-13T09:49:37;4.28;;;2.47;;
9950;SDS011;24074;49.254;6.702;2023-05-13T09:52:04;3.28;;;2.40;;
9950;SDS011;24074;49.254;6.702;2023-05-13T09:54:34;3.08;;;2.38;;
9950;SDS011;24074;49.254;6.702;2023-05-13T09:57:00;2.90;;;2.63;;
9950;SDS011;24074;49.254;6.702;2023-05-13T09:59:30;3.28;;;2.53;;
9950;SDS011;24074;49.254;6.702;2023-05-13T10:01:57;4.47;;;2.50;;
9950;SDS011;24074;49.254;6.702;2023-05-13T10:04:32;2.55;;;2.35;;
9950;SDS011;24074;49.254;6.702;2023-05-13T10:06:58;2.55;;;2.30;;
9950;SDS011;24074;49.254;6.702;2023-05-13T10:09:25;4.07;;;2.40;;
9950;SDS011;24074;49.254;6.702;2023-05-13T10:11:54;3.25;;;2.50;;
9950;SDS011;24074;49.254;6.702;2023-05-13T10:14:20;3.75;;;2.30;;
9950;SDS011;24074;49.254;6.702;2023-05-13T10:16:46;4.18;;;2.55;;
9950;SDS011;24074;49.254;6.702;2023-05-13T10:19:13;2.67;;;2.30;;
9950;SDS011;24074;49.254;6.702;2023-05-13T10:21:40;2.90;;;2.45;;
9950;SDS011;24074;49.254;6.702;2023-05-13T10:24:06;4.28;;;2.50;;
9950;SDS011;24074;49.254;6.702;2023-05-13T10:26:32;3.55;;;2.40;;
9950;SDS011;24074;49.254;6.702;2023-05-13T10:28:58;3.30;;;2.50;;
9950;SDS011;24074;49.254;6.702;2023-05-13T10:31:26;4.03;;;2.72;;
9950;SDS011;24074;49.254;6.702;2023-05-13T10:33:52;4.20;;;2.58;;
9950;SDS011;24074;49.254;6.702;2023-05-13T10:42:00;3.92;;;2.70;;
9950;SDS011;24074;49.254;6.702;2023-05-13T10:44:30;3.00;;;2.75;;
9950;SDS011;24074;49.254;6.702;2023-05-13T10:46:57;3.30;;;2.47;;
9950;SDS011;24074;49.254;6.702;2023-05-13T10:49:23;4.10;;;2.70;;
9950;SDS011;24074;49.254;6.702;2023-05-13T10:52:02;3.10;;;2.70;;
9950;SDS011;24074;49.254;6.702;2023-05-13T10:54:29;3.95;;;2.67;;
9950;SDS011;24074;49.254;6.702;2023-05-13T10:57:02;3.67;;;2.58;;
9950;SDS011;24074;49.254;6.702;2023-05-13T10:59:28;2.63;;;2.42;;
9950;SDS011;24074;49.254;6.702;2023-05-13T11:01:54;2.40;;;2.20;;
9950;SDS011;24074;49.254;6.702;2023-05-13T11:04:20;2.70;;;2.50;;
9950;SDS011;24074;49.254;6.702;2023-05-13T11:06:47;5.60;;;2.72;;
9950;SDS011;24074;49.254;6.702;2023-05-13T11:09:36;2.72;;;2.10;;
9950;SDS011;24074;49.254;6.702;2023-05-13T11:12:02;3.65;;;2.70;;
9950;SDS011;24074;49.254;6.702;2023-05-13T11:14:29;4.45;;;2.85;;
9950;SDS011;24074;49.254;6.702;2023-05-13T11:19:27;2.93;;;2.60;;
9950;SDS011;24074;49.254;6.702;2023-05-13T11:21:55;4.10;;;2.90;;
9950;SDS011;24074;49.254;6.702;2023-05-13T11:24:28;3.80;;;2.67;;
9950;SDS011;24074;49.254;6.702;2023-05-13T11:26:54;3.10;;;2.50;;
9950;SDS011;24074;49.254;6.702;2023-05-13T11:29:31;4.63;;;2.70;;
9950;SDS011;24074;49.254;6.702;2023-05-13T11:31:58;3.33;;;2.57;;
9950;SDS011;24074;49.254;6.702;2023-05-13T11:34:24;2.83;;;2.50;;
9950;SDS011;24074;49.254;6.702;2023-05-13T11:36:53;2.90;;;2.53;;
9950;SDS011;24074;49.254;6.702;2023-05-13T11:39:19;3.33;;;2.80;;
9950;SDS011;24074;49.254;6.702;2023-05-13T11:41:47;5.03;;;2.80;;
9950;SDS011;24074;49.254;6.702;2023-05-13T11:44:18;6.43;;;2.70;;
9950;SDS011;24074;49.254;6.702;2023-05-13T11:47:01;3.47;;;2.50;;
9950;SDS011;24074;49.254;6.702;2023-05-13T11:49:34;2.80;;;2.50;;
9950;SDS011;24074;49.254;6.702;2023-05-13T11:52:00;3.03;;;2.63;;
9950;SDS011;24074;49.254;6.702;2023-05-13T11:54:27;3.67;;;2.83;;
9950;SDS011;24074;49.254;6.702;2023-05-13T11:56:52;4.73;;;2.80;;
9950;SDS011;24074;49.254;6.702;2023-05-13T11:59:18;3.43;;;2.50;;
9950;SDS011;24074;49.254;6.702;2023-05-13T12:01:44;3.23;;;2.60;;
9950;SDS011;24074;49.254;6.702;2023-05-13T12:04:12;4.57;;;2.50;;
9950;SDS011;24074;49.254;6.702;2023-05-13T12:06:43;2.97;;;2.47;;
9950;SDS011;24074;49.254;6.702;2023-05-13T12:09:13;2.83;;;2.50;;
9950;SDS011;24074;49.254;6.702;2023-05-13T12:11:38;3.10;;;2.50;;
9950;SDS011;24074;49.254;6.702;2023-05-13T12:14:04;4.70;;;2.80;;
9950;SDS011;24074;49.254;6.702;2023-05-13T12:16:30;2.83;;;2.47;;
9950;SDS011;24074;49.254;6.702;2023-05-13T12:19:03;3.63;;;2.60;;
9950;SDS011;24074;49.254;6.702;2023-05-13T12:21:31;5.43;;;2.90;;
9950;SDS011;24074;49.254;6.702;2023-05-13T12:23:58;3.90;;;2.73;;
9950;SDS011;24074;49.254;6.702;2023-05-13T12:26:24;5.03;;;2.93;;
9950;SDS011;24074;49.254;6.702;2023-05-13T12:28:59;3.10;;;2.80;;
9950;SDS011;24074;49.254;6.702;2023-05-13T12:31:24;3.83;;;2.80;;
9950;SDS011;24074;49.254;6.702;2023-05-13T12:33:51;5.07;;;2.50;;
9950;SDS011;24074;49.254;6.702;2023-05-13T12:36:21;2.50;;;2.30;;
9950;SDS011;24074;49.254;6.702;2023-05-13T12:38:58;4.07;;;2.80;;
9950;SDS011;24074;49.254;6.702;2023-05-13T12:41:32;3.23;;;2.70;;
9950;SDS011;24074;49.254;6.702;2023-05-13T12:44:03;2.87;;;2.57;;
9950;SDS011;24074;49.254;6.702;2023-05-13T12:46:28;2.77;;;2.57;;
9950;SDS011;24074;49.254;6.702;2023-05-13T12:48:55;4.07;;;2.80;;
9950;SDS011;24074;49.254;6.702;2023-05-13T12:51:25;4.07;;;2.60;;
9950;SDS011;24074;49.254;6.702;2023-05-13T12:53:51;3.50;;;2.83;;
9950;SDS011;24074;49.254;6.702;2023-05-13T12:56:19;4.37;;;2.60;;
9950;SDS011;24074;49.254;6.702;2023-05-13T12:58:46;3.53;;;2.67;;
9950;SDS011;24074;49.254;6.702;2023-05-13T13:01:12;2.83;;;2.53;;
9950;SDS011;24074;49.254;6.702;2023-05-13T13:03:37;3.70;;;2.87;;
9950;SDS011;24074;49.254;6.702;2023-05-13T13:06:03;3.40;;;2.90;;
9950;SDS011;24074;49.254;6.702;2023-05-13T13:08:29;2.77;;;2.57;;
9950;SDS011;24074;49.254;6.702;2023-05-13T13:10:54;2.70;;;2.50;;
9950;SDS011;24074;49.254;6.702;2023-05-13T13:13:20;3.00;;;2.47;;
9950;SDS011;24074;49.254;6.702;2023-05-13T13:15:46;4.27;;;2.60;;
9950;SDS011;24074;49.254;6.702;2023-05-13T13:18:11;2.63;;;2.30;;
9950;SDS011;24074;49.254;6.702;2023-05-13T13:20:37;2.90;;;2.47;;
9950;SDS011;24074;49.254;6.702;2023-05-13T13:23:02;2.80;;;2.60;;
9950;SDS011;24074;49.254;6.702;2023-05-13T13:25:28;2.93;;;2.47;;
9950;SDS011;24074;49.254;6.702;2023-05-13T13:27:54;5.27;;;2.50;;
9950;SDS011;24074;49.254;6.702;2023-05-13T13:30:20;2.70;;;2.50;;
9950;SDS011;24074;49.254;6.702;2023-05-13T13:32:45;4.17;;;2.60;;
9950;SDS011;24074;49.254;6.702;2023-05-13T13:35:11;4.23;;;2.50;;
9950;SDS011;24074;49.254;6.702;2023-05-13T13:37:36;4.97;;;2.40;;
9950;SDS011;24074;49.254;6.702;2023-05-13T13:40:03;3.47;;;2.40;;
9950;SDS011;24074;49.254;6.702;2023-05-13T13:42:28;3.87;;;2.50;;
9950;SDS011;24074;49.254;6.702;2023-05-13T13:44:54;3.23;;;2.20;;
9950;SDS011;24074;49.254;6.702;2023-05-13T13:47:20;3.63;;;2.20;;
9950;SDS011;24074;49.254;6.702;2023-05-13T13:49:46;2.40;;;2.20;;
9950;SDS011;24074;49.254;6.702;2023-05-13T13:52:12;3.83;;;2.47;;
9950;SDS011;24074;49.254;6.702;2023-05-13T13:54:38;2.70;;;2.30;;
9950;SDS011;24074;49.254;6.702;2023-05-13T13:57:03;2.37;;;2.17;;
9950;SDS011;24074;49.254;6.702;2023-05-13T13:59:29;2.37;;;2.13;;
9950;SDS011;24074;49.254;6.702;2023-05-13T14:01:55;3.07;;;2.33;;
9950;SDS011;24074;49.254;6.702;2023-05-13T14:04:21;4.33;;;2.47;;
9950;SDS011;24074;49.254;6.702;2023-05-13T14:06:47;4.53;;;2.43;;
9950;SDS011;24074;49.254;6.702;2023-05-13T14:09:14;2.10;;;1.90;;
9950;SDS011;24074;49.254;6.702;2023-05-13T14:11:40;3.70;;;2.30;;
9950;SDS011;24074;49.254;6.702;2023-05-13T14:14:06;2.50;;;2.27;;
9950;SDS011;24074;49.254;6.702;2023-05-13T14:16:34;4.33;;;2.23;;
9950;SDS011;24074;49.254;6.702;2023-05-13T14:19:00;5.50;;;2.20;;
9950;SDS011;24074;49.254;6.702;2023-05-13T14:21:25;2.23;;;2.00;;
9950;SDS011;24074;49.254;6.702;2023-05-13T14:23:51;2.60;;;2.27;;
9950;SDS011;24074;49.254;6.702;2023-05-13T14:26:16;3.40;;;2.50;;
9950;SDS011;24074;49.254;6.702;2023-05-13T14:28:42;3.87;;;2.40;;
9950;SDS011;24074;49.254;6.702;2023-05-13T14:31:08;2.50;;;2.30;;
9950;SDS011;24074;49.254;6.702;2023-05-13T14:33:34;2.53;;;2.30;;
9950;SDS011;24074;49.254;6.702;2023-05-13T14:36:00;5.43;;;2.63;;
9950;SDS011;24074;49.254;6.702;2023-05-13T14:38:26;5.50;;;2.57;;
9950;SDS011;24074;49.254;6.702;2023-05-13T14:40:51;4.53;;;2.20;;
9950;SDS011;24074;49.254;6.702;2023-05-13T14:43:19;2.77;;;2.10;;
9950;SDS011;24074;49.254;6.702;2023-05-13T14:45:45;2.40;;;2.20;;
9950;SDS011;24074;49.254;6.702;2023-05-13T14:48:11;2.53;;;2.00;;
9950;SDS011;24074;49.254;6.702;2023-05-13T14:50:37;3.43;;;2.30;;
9950;SDS011;24074;49.254;6.702;2023-05-13T14:53:02;2.37;;;2.17;;
9950;SDS011;24074;49.254;6.702;2023-05-13T14:55:28;4.47;;;2.50;;
9950;SDS011;24074;49.254;6.702;2023-05-13T14:57:53;2.97;;;2.30;;
9950;SDS011;24074;49.254;6.702;2023-05-13T15:00:19;4.57;;;2.77;;
9950;SDS011;24074;49.254;6.702;2023-05-13T15:02:45;3.93;;;2.70;;
9950;SDS011;24074;49.254;6.702;2023-05-13T15:05:13;3.80;;;2.30;;
9950;SDS011;24074;49.254;6.702;2023-05-13T15:07:52;3.07;;;2.40;;
9950;SDS011;24074;49.254;6.702;2023-05-13T15:10:18;2.30;;;2.10;;
9950;SDS011;24074;49.254;6.702;2023-05-13T15:12:43;3.30;;;2.47;;
9950;SDS011;24074;49.254;6.702;2023-05-13T15:15:09;3.23;;;2.30;;
9950;SDS011;24074;49.254;6.702;2023-05-13T15:17:36;3.20;;;2.47;;
9950;SDS011;24074;49.254;6.702;2023-05-13T15:20:02;2.90;;;2.60;;
9950;SDS011;24074;49.254;6.702;2023-05-13T15:22:27;2.67;;;2.43;;
9950;SDS011;24074;49.254;6.702;2023-05-13T15:24:53;3.40;;;2.20;;